Time;durP1;ratioP1;P1;durP2;ratioP2;P2;SDS_P1;SDS_P2;PMS_P1;PMS_P2;Temp;Humidity;BMP_temperature;BMP_pressure;BME280_temperature;BME280_humidity;BME280_pressure;Samples;Min_cycle;Max_cycle;Signal;HPM_P1;HPM_P2
2021/10/07 00:00:35;;;;;;;3.00;1.92;;;;;17.20;102142.00;;;;5043346;28;20662;-79
2021/10/07 00:03:02;;;;;;;4.07;1.48;;;;;17.20;102146.00;;;;5047625;28;20565;-79
2021/10/07 00:05:29;;;;;;;3.03;1.52;;;;;17.20;102147.00;;;;5029681;28;20200;-78
2021/10/07 00:07:57;;;;;;;2.05;1.38;;;;;17.10;102148.00;;;;5028024;28;20208;-79
2021/10/07 00:10:24;;;;;;;3.20;1.98;;;;;17.10;102157.00;;;;5028253;28;20235;-79
2021/10/07 00:12:51;;;;;;;1.73;1.20;;;;;17.10;102151.00;;;;5030015;28;20197;-79
2021/10/07 00:15:20;;;;;;;1.48;1.30;;;;;17.10;102151.00;;;;5030909;28;20204;-79
2021/10/07 00:17:48;;;;;;;1.88;1.50;;;;;17.10;102157.00;;;;5028813;28;20219;-79
2021/10/07 00:20:17;;;;;;;2.47;1.67;;;;;17.10;102159.00;;;;5041755;28;20188;-79
2021/10/07 00:22:46;;;;;;;4.38;1.67;;;;;17.10;102158.00;;;;5040677;28;20238;-79
2021/10/07 00:25:15;;;;;;;2.13;1.65;;;;;17.10;102160.00;;;;5029530;28;20239;-79
2021/10/07 00:27:43;;;;;;;1.90;1.55;;;;;17.00;102157.00;;;;5040220;28;20188;-79
2021/10/07 00:30:15;;;;;;;2.20;1.80;;;;;17.00;102163.00;;;;5032132;28;20204;-78
2021/10/07 00:32:50;;;;;;;2.50;1.70;;;;;17.00;102161.00;;;;5048625;28;20207;-79
2021/10/07 00:40:43;;;;;;;3.03;1.75;;;;;16.90;102162.00;;;;5028640;28;20211;-79
2021/10/07 00:43:10;;;;;;;6.13;2.30;;;;;16.90;102161.00;;;;5027425;28;20578;-79
2021/10/07 00:45:38;;;;;;;2.35;1.70;;;;;16.90;102175.00;;;;5043944;28;20195;-79
2021/10/07 00:48:06;;;;;;;1.65;1.40;;;;;16.90;102173.00;;;;5041106;28;20196;-79
2021/10/07 00:50:34;;;;;;;2.47;1.40;;;;;16.90;102171.00;;;;5028158;28;20199;-79
2021/10/07 00:53:01;;;;;;;2.35;1.75;;;;;16.90;102171.00;;;;5027557;28;20212;-78
2021/10/07 00:55:28;;;;;;;2.40;2.03;;;;;16.80;102168.00;;;;5034109;28;20214;-78
2021/10/07 00:57:55;;;;;;;2.03;1.58;;;;;16.80;102171.00;;;;5033676;28;20201;-79
2021/10/07 01:00:23;;;;;;;3.58;1.65;;;;;16.80;102175.00;;;;5028186;28;20203;-78
2021/10/07 01:02:50;;;;;;;1.60;1.27;;;;;16.80;102177.00;;;;5031943;28;20271;-78
2021/10/07 01:05:21;;;;;;;2.42;1.45;;;;;16.80;102186.00;;;;5028242;28;20222;-79
2021/10/07 01:07:49;;;;;;;2.13;1.77;;;;;16.80;102191.00;;;;5029061;28;20196;-78
2021/10/07 01:10:16;;;;;;;2.67;1.58;;;;;16.70;102187.00;;;;5028153;28;20219;-79
2021/10/07 01:12:43;;;;;;;3.30;1.75;;;;;16.70;102190.00;;;;5034745;28;20204;-78
2021/10/07 01:15:11;;;;;;;3.47;2.20;;;;;16.70;102193.00;;;;5033683;28;20199;-78
2021/10/07 01:17:38;;;;;;;3.53;1.67;;;;;16.70;102193.00;;;;5034703;28;20199;-79
2021/10/07 01:20:08;;;;;;;2.83;1.92;;;;;16.70;102198.00;;;;5030223;28;20203;-78
2021/10/07 01:22:36;;;;;;;2.40;1.92;;;;;16.70;102196.00;;;;5038052;28;20666;-78
2021/10/07 01:25:03;;;;;;;2.28;1.48;;;;;16.70;102198.00;;;;5038300;28;20235;-78
2021/10/07 01:27:34;;;;;;;2.95;1.83;;;;;16.70;102199.00;;;;5039143;28;20196;-79
2021/10/07 01:30:05;;;;;;;3.85;1.52;;;;;16.60;102196.00;;;;5036863;28;21149;-79
2021/10/07 01:32:35;;;;;;;3.58;1.83;;;;;16.60;102203.00;;;;5047734;28;20206;-81
2021/10/07 01:35:03;;;;;;;2.55;1.42;;;;;16.60;102203.00;;;;5051514;28;20295;-79
2021/10/07 01:37:31;;;;;;;2.50;1.70;;;;;16.60;102199.00;;;;5051102;28;20203;-79
2021/10/07 01:39:59;;;;;;;4.00;1.70;;;;;16.60;102213.00;;;;5043236;28;20224;-79
2021/10/07 01:42:27;;;;;;;2.92;1.70;;;;;16.60;102221.00;;;;5034597;28;20688;-78
2021/10/07 01:44:54;;;;;;;2.38;1.67;;;;;16.60;102220.00;;;;5035366;28;20302;-78
2021/10/07 01:47:22;;;;;;;2.30;1.92;;;;;16.50;102210.00;;;;5049189;28;20216;-79
2021/10/07 01:49:49;;;;;;;2.50;1.70;;;;;16.50;102221.00;;;;5050971;28;20798;-78
2021/10/07 01:52:16;;;;;;;3.33;2.45;;;;;16.50;102222.00;;;;5037289;28;20207;-79
2021/10/07 01:54:45;;;;;;;2.50;2.00;;;;;16.50;102210.00;;;;5044632;28;20215;-79
2021/10/07 01:57:12;;;;;;;5.93;2.55;;;;;16.50;102220.00;;;;5043373;28;20195;-79
2021/10/07 01:59:39;;;;;;;2.53;1.95;;;;;16.50;102227.00;;;;5043917;28;20210;-79
2021/10/07 02:02:07;;;;;;;3.75;2.42;;;;;16.50;102226.00;;;;5036032;28;20196;-78
2021/10/07 02:04:34;;;;;;;3.05;2.33;;;;;16.40;102236.00;;;;5033609;28;20232;-78
2021/10/07 02:07:01;;;;;;;2.28;1.85;;;;;16.40;102227.00;;;;5031388;28;20188;-78
2021/10/07 02:09:28;;;;;;;2.03;1.83;;;;;16.40;102227.00;;;;5031849;28;20196;-78
2021/10/07 02:11:57;;;;;;;3.83;1.98;;;;;16.40;102231.00;;;;5032198;28;20200;-79
2021/10/07 02:14:25;;;;;;;2.53;2.10;;;;;16.40;102230.00;;;;5043705;28;20191;-78
2021/10/07 02:16:53;;;;;;;2.83;1.92;;;;;16.40;102234.00;;;;5037392;28;20200;-78
2021/10/07 02:19:20;;;;;;;3.92;2.17;;;;;16.40;102238.00;;;;5045057;28;20208;-78
2021/10/07 02:21:47;;;;;;;2.05;1.65;;;;;16.30;102241.00;;;;5051595;28;20211;-78
2021/10/07 02:24:14;;;;;;;3.42;2.03;;;;;16.30;102242.00;;;;5037376;28;20215;-78
2021/10/07 02:26:42;;;;;;;2.53;1.80;;;;;16.30;102241.00;;;;5031142;28;20200;-78
2021/10/07 02:29:10;;;;;;;3.72;1.60;;;;;16.30;102244.00;;;;5030696;28;20200;-79
2021/10/07 02:31:37;;;;;;;1.73;1.60;;;;;16.30;102245.00;;;;5031656;28;20231;-78
2021/10/07 02:34:05;;;;;;;2.17;1.48;;;;;16.30;102257.00;;;;5030668;28;20216;-78
2021/10/07 02:36:32;;;;;;;2.60;1.77;;;;;16.20;102254.00;;;;5041108;28;20214;-78
2021/10/07 02:38:59;;;;;;;4.88;1.55;;;;;16.20;102254.00;;;;5036136;28;20623;-78
2021/10/07 02:41:26;;;;;;;2.83;2.17;;;;;16.20;102255.00;;;;5032799;28;20193;-78
2021/10/07 02:43:54;;;;;;;3.92;2.72;;;;;16.20;102256.00;;;;5041409;28;20283;-79
2021/10/07 02:46:22;;;;;;;2.13;1.55;;;;;16.20;102260.00;;;;5036101;28;20208;-78
2021/10/07 02:48:50;;;;;;;2.70;2.00;;;;;16.20;102259.00;;;;5030115;28;20223;-78
2021/10/07 02:51:17;;;;;;;5.88;1.90;;;;;16.20;102260.00;;;;5030827;28;20216;-78
2021/10/07 02:53:44;;;;;;;1.73;1.55;;;;;16.20;102265.00;;;;5036861;28;20196;-78
2021/10/07 02:56:12;;;;;;;2.60;1.77;;;;;16.10;102271.00;;;;5037206;28;20200;-79
2021/10/07 02:58:39;;;;;;;2.22;1.88;;;;;16.10;102272.00;;;;5035712;28;20207;-78
2021/10/07 03:01:06;;;;;;;2.67;2.33;;;;;16.10;102276.00;;;;5037772;28;20199;-79
2021/10/07 03:03:35;;;;;;;3.80;2.28;;;;;16.10;102273.00;;;;5046962;28;20189;-78
2021/10/07 03:06:02;;;;;;;2.00;1.80;;;;;16.10;102284.00;;;;5030236;28;20590;-78
2021/10/07 03:08:29;;;;;;;4.68;1.65;;;;;16.10;102274.00;;;;5031861;28;20215;-78
2021/10/07 03:10:57;;;;;;;2.70;1.75;;;;;16.10;102280.00;;;;5032846;28;20199;-78
2021/10/07 03:13:25;;;;;;;4.35;1.77;;;;;16.10;102278.00;;;;5037625;28;20199;-79
2021/10/07 03:15:52;;;;;;;2.40;2.20;;;;;16.10;102291.00;;;;5047573;28;20196;-78
2021/10/07 03:18:20;;;;;;;2.47;1.95;;;;;16.10;102291.00;;;;5048075;28;20192;-78
2021/10/07 03:20:48;;;;;;;1.98;1.73;;;;;16.10;102290.00;;;;5039681;28;20208;-78
2021/10/07 03:23:16;;;;;;;3.00;2.10;;;;;16.10;102293.00;;;;5031320;28;20204;-78
2021/10/07 03:25:43;;;;;;;3.42;1.83;;;;;16.10;102298.00;;;;5049473;28;20231;-78
2021/10/07 03:28:10;;;;;;;2.45;2.00;;;;;16.10;102301.00;;;;5041420;28;20243;-78
2021/10/07 03:30:37;;;;;;;2.22;1.85;;;;;16.10;102297.00;;;;5032892;28;20189;-78
2021/10/07 03:33:06;;;;;;;1.98;1.75;;;;;16.10;102298.00;;;;5029707;28;20662;-78
2021/10/07 03:35:33;;;;;;;3.28;1.67;;;;;16.10;102304.00;;;;5036202;28;20291;-80
2021/10/07 03:38:02;;;;;;;2.40;1.52;;;;;16.10;102303.00;;;;5048237;28;20234;-80
2021/10/07 03:40:30;;;;;;;2.90;2.13;;;;;16.10;102297.00;;;;5034895;28;20575;-78
2021/10/07 03:42:57;;;;;;;2.13;1.65;;;;;16.10;102310.00;;;;5029070;28;20192;-79
2021/10/07 03:45:24;;;;;;;2.40;2.20;;;;;16.10;102312.00;;;;5030382;28;20227;-78
2021/10/07 03:47:51;;;;;;;3.20;2.38;;;;;16.10;102299.00;;;;5029396;28;20201;-78
2021/10/07 03:50:19;;;;;;;2.95;2.45;;;;;16.10;102308.00;;;;5030499;28;20709;-78
2021/10/07 03:52:46;;;;;;;3.55;2.35;;;;;16.10;102299.00;;;;5029317;28;20582;-78
2021/10/07 03:55:15;;;;;;;3.22;2.17;;;;;16.10;102310.00;;;;5045826;28;20185;-78
2021/10/07 03:57:42;;;;;;;2.80;2.38;;;;;16.10;102315.00;;;;5032659;28;20710;-78
2021/10/07 04:00:11;;;;;;;2.85;2.20;;;;;16.10;102311.00;;;;5037717;28;20223;-78
2021/10/07 04:02:38;;;;;;;3.30;2.53;;;;;16.10;102312.00;;;;5034289;28;20692;-78
2021/10/07 04:05:06;;;;;;;2.38;2.17;;;;;16.10;102316.00;;;;5029777;28;20216;-78
2021/10/07 04:07:34;;;;;;;5.18;2.45;;;;;16.10;102320.00;;;;5033812;28;20662;-78
2021/10/07 04:10:01;;;;;;;3.90;2.35;;;;;16.00;102318.00;;;;5030506;28;20196;-77
2021/10/07 04:12:30;;;;;;;3.00;2.70;;;;;16.00;102319.00;;;;5045384;28;20196;-77
2021/10/07 04:14:57;;;;;;;3.95;2.60;;;;;16.00;102322.00;;;;5029077;28;20211;-78
2021/10/07 04:17:24;;;;;;;4.28;3.08;;;;;16.00;102324.00;;;;5032392;28;20195;-78
2021/10/07 04:19:51;;;;;;;2.80;2.25;;;;;16.00;102334.00;;;;5032488;28;20207;-78
2021/10/07 04:22:19;;;;;;;2.85;2.55;;;;;16.00;102332.00;;;;5035149;28;20192;-78
2021/10/07 04:24:46;;;;;;;3.28;2.33;;;;;16.00;102332.00;;;;5036832;28;20462;-78
2021/10/07 04:27:14;;;;;;;3.70;2.72;;;;;15.90;102338.00;;;;5045628;28;20230;-79
2021/10/07 04:29:43;;;;;;;3.10;2.13;;;;;15.90;102333.00;;;;5039912;28;20196;-78
2021/10/07 04:32:11;;;;;;;3.22;2.45;;;;;15.90;102335.00;;;;5036740;28;20199;-78
2021/10/07 04:34:38;;;;;;;3.13;2.22;;;;;15.90;102345.00;;;;5043283;28;20216;-78
2021/10/07 04:37:06;;;;;;;3.08;2.50;;;;;15.80;102344.00;;;;5028735;28;20200;-78
2021/10/07 04:39:33;;;;;;;3.55;2.65;;;;;15.80;102342.00;;;;5029138;28;20224;-78
2021/10/07 04:42:00;;;;;;;3.00;2.60;;;;;15.80;102352.00;;;;5041563;28;20191;-80
2021/10/07 04:44:28;;;;;;;3.58;2.47;;;;;15.80;102360.00;;;;5029995;28;20208;-78
2021/10/07 04:46:56;;;;;;;3.10;2.30;;;;;15.70;102354.00;;;;5045366;28;20188;-79
2021/10/07 04:49:24;;;;;;;4.85;2.60;;;;;15.70;102362.00;;;;5040664;28;20222;-78
2021/10/07 04:51:51;;;;;;;2.72;2.38;;;;;15.70;102367.00;;;;5044644;28;20207;-78
2021/10/07 04:54:18;;;;;;;2.85;2.60;;;;;15.70;102371.00;;;;5027592;28;20203;-78
2021/10/07 04:56:45;;;;;;;2.97;2.60;;;;;15.70;102369.00;;;;5038522;28;20211;-78
2021/10/07 04:59:13;;;;;;;3.08;2.25;;;;;15.70;102373.00;;;;5028866;28;20207;-78
2021/10/07 05:01:40;;;;;;;4.00;2.03;;;;;15.70;102376.00;;;;5037150;28;20200;-79
2021/10/07 05:04:18;;;;;;;4.68;2.35;;;;;15.60;102381.00;;;;5030849;28;20196;-79
2021/10/07 05:06:45;;;;;;;3.55;2.60;;;;;15.70;102377.00;;;;5032547;28;20226;-79
2021/10/07 05:09:12;;;;;;;3.28;2.47;;;;;15.70;102395.00;;;;5034871;28;20204;-79
2021/10/07 05:11:40;;;;;;;2.88;2.58;;;;;15.70;102389.00;;;;5044907;28;20669;-79
2021/10/07 05:14:07;;;;;;;5.15;2.33;;;;;15.70;102392.00;;;;5044673;28;20196;-79
2021/10/07 05:16:34;;;;;;;2.25;2.03;;;;;15.70;102390.00;;;;5047021;28;20199;-79
2021/10/07 05:19:01;;;;;;;3.83;1.90;;;;;15.70;102398.00;;;;5034139;28;20207;-79
2021/10/07 05:21:30;;;;;;;3.28;2.33;;;;;15.70;102395.00;;;;5033347;28;20199;-79
2021/10/07 05:23:58;;;;;;;3.60;2.35;;;;;15.70;102394.00;;;;5028257;28;20215;-79
2021/10/07 05:26:25;;;;;;;2.92;2.58;;;;;15.70;102396.00;;;;5029793;28;20220;-80
2021/10/07 05:28:53;;;;;;;2.60;2.20;;;;;15.70;102399.00;;;;5035940;28;20191;-79
2021/10/07 05:31:21;;;;;;;4.82;2.15;;;;;15.70;102402.00;;;;5037240;28;20194;-79
2021/10/07 05:33:49;;;;;;;2.10;1.73;;;;;15.70;102414.00;;;;5039521;28;20204;-79
2021/10/07 05:36:17;;;;;;;2.67;2.00;;;;;15.80;102417.00;;;;5030739;28;20207;-80
2021/10/07 05:38:45;;;;;;;2.35;1.77;;;;;15.80;102410.00;;;;5026667;28;20228;-79
2021/10/07 05:41:12;;;;;;;2.35;2.05;;;;;15.80;102405.00;;;;5028595;28;20235;-83
2021/10/07 05:43:40;;;;;;;4.65;2.22;;;;;15.80;102416.00;;;;5035606;28;20226;-80
2021/10/07 05:46:07;;;;;;;4.63;2.20;;;;;15.80;102420.00;;;;5036335;28;20220;-80
2021/10/07 05:48:36;;;;;;;4.88;2.63;;;;;15.70;102417.00;;;;5028229;28;20243;-81
2021/10/07 05:51:03;;;;;;;4.18;2.13;;;;;15.70;102413.00;;;;5032221;28;21131;-80
2021/10/07 05:53:30;;;;;;;3.20;2.35;;;;;15.80;102422.00;;;;5027701;28;20212;-79
2021/10/07 05:55:59;;;;;;;4.47;2.72;;;;;15.70;102429.00;;;;5028064;28;20201;-78
2021/10/07 05:58:27;;;;;;;2.95;2.33;;;;;15.80;102429.00;;;;5027688;28;20200;-79
2021/10/07 06:00:54;;;;;;;3.35;2.65;;;;;15.80;102426.00;;;;5030029;28;20821;-80
2021/10/07 06:03:21;;;;;;;3.00;2.22;;;;;15.80;102432.00;;;;5042266;28;20226;-80
2021/10/07 06:05:49;;;;;;;3.30;2.80;;;;;15.80;102443.00;;;;5041754;28;20216;-81
2021/10/07 06:08:16;;;;;;;2.60;2.03;;;;;15.80;102440.00;;;;5042898;28;20192;-79
2021/10/07 06:10:43;;;;;;;2.40;1.77;;;;;15.80;102441.00;;;;5041808;28;20206;-79
2021/10/07 06:13:12;;;;;;;2.38;2.17;;;;;15.80;102442.00;;;;5036996;28;20621;-79
2021/10/07 06:15:39;;;;;;;1.70;1.50;;;;;15.80;102445.00;;;;5031344;28;20204;-79
2021/10/07 06:18:06;;;;;;;4.63;1.63;;;;;15.90;102450.00;;;;5035815;28;20215;-78
2021/10/07 06:20:34;;;;;;;2.65;2.45;;;;;15.90;102444.00;;;;5037349;28;20197;-79
2021/10/07 06:23:03;;;;;;;2.53;2.05;;;;;15.90;102445.00;;;;5036549;28;20202;-76
2021/10/07 06:25:31;;;;;;;3.47;2.50;;;;;16.00;102449.00;;;;5031364;28;20649;-77
2021/10/07 06:27:59;;;;;;;2.00;1.55;;;;;16.00;102456.00;;;;5042866;28;20211;-78
2021/10/07 06:30:27;;;;;;;3.92;2.13;;;;;16.00;102459.00;;;;5049989;28;20680;-78
2021/10/07 06:32:57;;;;;;;4.13;2.28;;;;;16.00;102463.00;;;;5050576;28;20216;-78
2021/10/07 06:35:24;;;;;;;2.45;1.70;;;;;16.00;102462.00;;;;5041210;28;20230;-78
2021/10/07 06:37:51;;;;;;;4.72;2.22;;;;;16.10;102473.00;;;;5050144;28;20199;-78
2021/10/07 06:40:18;;;;;;;3.88;2.38;;;;;16.10;102470.00;;;;5050914;28;20207;-78
2021/10/07 06:42:46;;;;;;;4.38;2.20;;;;;16.10;102473.00;;;;5051110;28;20211;-78
2021/10/07 06:45:13;;;;;;;3.55;1.83;;;;;16.10;102478.00;;;;5050799;28;20210;-78
2021/10/07 06:47:42;;;;;;;3.03;2.28;;;;;16.10;102480.00;;;;5050644;28;20215;-79
2021/10/07 06:50:11;;;;;;;2.65;2.10;;;;;16.10;102482.00;;;;5050791;28;20698;-78
2021/10/07 06:52:41;;;;;;;1.70;1.55;;;;;16.20;102492.00;;;;5038557;28;20211;-79
2021/10/07 06:55:11;;;;;;;3.80;1.70;;;;;16.20;102492.00;;;;5032825;28;20295;-79
2021/10/07 06:57:38;;;;;;;2.47;1.85;;;;;16.20;102497.00;;;;5031228;28;20189;-79
2021/10/07 07:00:08;;;;;;;1.98;1.67;;;;;16.20;102500.00;;;;5030406;28;20196;-79
2021/10/07 07:02:36;;;;;;;3.53;2.25;;;;;16.30;102502.00;;;;5032263;28;20200;-79
2021/10/07 07:05:06;;;;;;;2.70;2.05;;;;;16.30;102504.00;;;;5040607;28;20296;-79
2021/10/07 07:07:34;;;;;;;2.10;1.70;;;;;16.30;102516.00;;;;5034872;28;20790;-80
2021/10/07 07:10:01;;;;;;;1.85;1.63;;;;;16.30;102512.00;;;;5034959;28;20200;-79
2021/10/07 07:12:29;;;;;;;2.88;1.80;;;;;16.40;102514.00;;;;5034195;28;20200;-79
2021/10/07 07:14:56;;;;;;;2.10;1.85;;;;;16.40;102520.00;;;;5032229;28;20232;-79
2021/10/07 07:17:23;;;;;;;1.70;1.45;;;;;16.40;102520.00;;;;5036710;28;20199;-79
2021/10/07 07:19:51;;;;;;;2.05;1.85;;;;;16.50;102520.00;;;;5029910;28;20199;-79
2021/10/07 07:22:19;;;;;;;2.17;1.55;;;;;16.50;102523.00;;;;5041082;28;20195;-79
2021/10/07 07:24:47;;;;;;;1.88;1.30;;;;;16.60;102529.00;;;;5039638;28;20211;-79
2021/10/07 07:27:16;;;;;;;3.85;1.77;;;;;16.60;102527.00;;;;5034154;28;20216;-79
2021/10/07 07:29:43;;;;;;;5.20;1.95;;;;;16.60;102527.00;;;;5035822;28;20195;-79
2021/10/07 07:32:11;;;;;;;1.92;1.63;;;;;16.60;102528.00;;;;5038593;28;20205;-79
2021/10/07 07:34:38;;;;;;;1.48;1.38;;;;;16.70;102528.00;;;;5029477;28;20207;-79
2021/10/07 07:37:05;;;;;;;2.90;1.60;;;;;16.70;102532.00;;;;5035169;28;20681;-79
2021/10/07 07:39:35;;;;;;;3.42;1.38;;;;;16.70;102535.00;;;;5032689;28;20239;-80
2021/10/07 07:42:03;;;;;;;4.78;1.50;;;;;16.80;102539.00;;;;5030900;28;20208;-79
2021/10/07 07:44:30;;;;;;;7.13;1.60;;;;;16.80;102542.00;;;;5043179;28;20592;-79
2021/10/07 07:46:57;;;;;;;4.55;1.20;;;;;16.80;102539.00;;;;5031761;28;20235;-79
2021/10/07 07:49:25;;;;;;;2.22;1.55;;;;;16.90;102548.00;;;;5029405;28;20228;-80
2021/10/07 07:51:53;;;;;;;6.38;1.40;;;;;16.90;102544.00;;;;5029088;28;20208;-79
2021/10/07 07:54:21;;;;;;;4.47;1.27;;;;;16.90;102553.00;;;;5029242;28;20204;-79
2021/10/07 07:56:49;;;;;;;6.97;1.10;;;;;16.90;102552.00;;;;5036566;28;20208;-80
2021/10/07 07:59:16;;;;;;;4.70;1.48;;;;;16.90;102558.00;;;;5041433;28;20261;-79
2021/10/07 08:01:44;;;;;;;9.80;1.73;;;;;17.00;102559.00;;;;5029688;28;20200;-80
2021/10/07 08:04:11;;;;;;;9.45;1.67;;;;;17.00;102561.00;;;;5035524;28;20208;-79
2021/10/07 08:06:38;;;;;;;3.03;1.27;;;;;17.00;102564.00;;;;5028711;28;20231;-80
2021/10/07 08:09:06;;;;;;;5.68;1.55;;;;;17.00;102561.00;;;;5037729;28;20215;-79
2021/10/07 08:11:37;;;;;;;2.35;1.15;;;;;17.00;102565.00;;;;5030192;28;20208;-80
2021/10/07 08:14:05;;;;;;;11.98;1.50;;;;;17.00;102571.00;;;;5031333;28;20199;-80
2021/10/07 08:16:33;;;;;;;6.03;1.05;;;;;17.10;102563.00;;;;5034707;28;20203;-79
2021/10/07 08:19:00;;;;;;;8.20;1.65;;;;;17.10;102570.00;;;;5036911;28;20204;-80
2021/10/07 08:21:28;;;;;;;3.55;1.23;;;;;17.20;102559.00;;;;5043935;28;20228;-80
2021/10/07 08:23:56;;;;;;;1.58;1.48;;;;;17.20;102566.00;;;;5039860;28;20667;-80
2021/10/07 08:26:24;;;;;;;3.13;1.45;;;;;17.30;102561.00;;;;5035672;28;20603;-80
2021/10/07 08:28:51;;;;;;;5.35;1.40;;;;;17.30;102568.00;;;;5040659;28;20192;-80
2021/10/07 08:31:20;;;;;;;2.88;1.70;;;;;17.30;102562.00;;;;5035454;28;20208;-80
2021/10/07 08:33:47;;;;;;;3.00;1.20;;;;;17.40;102575.00;;;;5036902;28;20211;-80
2021/10/07 08:36:14;;;;;;;2.85;1.50;;;;;17.50;102579.00;;;;5027452;28;20208;-80
2021/10/07 08:38:42;;;;;;;1.63;1.30;;;;;17.50;102585.00;;;;5037014;28;20227;-79
2021/10/07 08:41:09;;;;;;;1.73;1.52;;;;;17.60;102591.00;;;;5027913;28;20192;-78
2021/10/07 08:43:38;;;;;;;1.65;1.55;;;;;17.60;102589.00;;;;5027501;28;20196;-78
2021/10/07 08:46:09;;;;;;;3.33;1.70;;;;;17.70;102597.00;;;;5031011;28;20226;-78
2021/10/07 08:48:38;;;;;;;3.20;2.33;;;;;17.70;102596.00;;;;5028926;28;20211;-78
2021/10/07 08:51:06;;;;;;;6.45;4.13;;;;;17.80;102597.00;;;;5033319;28;20685;-78
2021/10/07 08:53:33;;;;;;;8.45;5.88;;;;;17.80;102598.00;;;;5027442;28;20200;-78
2021/10/07 08:56:01;;;;;;;10.13;7.53;;;;;17.90;102601.00;;;;5030949;28;20200;-78
2021/10/07 08:58:28;;;;;;;9.60;6.63;;;;;17.90;102599.00;;;;5030769;28;20305;-80
2021/10/07 09:00:56;;;;;;;6.95;5.43;;;;;17.90;102603.00;;;;5038119;28;20203;-80
2021/10/07 09:03:24;;;;;;;7.03;5.10;;;;;18.00;102597.00;;;;5028101;28;20720;-79
2021/10/07 09:06:10;;;;;;;5.65;4.32;;;;;17.90;102603.00;;;;5039762;28;20193;-80
2021/10/07 09:08:47;;;;;;;4.00;3.60;;;;;18.00;102610.00;;;;5028248;28;20725;-80
2021/10/07 09:11:26;;;;;;;5.13;3.15;;;;;18.00;102597.00;;;;5031958;28;20206;-80
2021/10/07 09:14:01;;;;;;;3.35;2.85;;;;;18.00;102602.00;;;;5035322;28;20206;-80
2021/10/07 09:16:32;;;;;;;2.80;2.33;;;;;18.10;102602.00;;;;5034261;28;20211;-79
2021/10/07 09:19:17;;;;;;;2.70;2.00;;;;;18.10;102604.00;;;;5033213;28;20211;-79
2021/10/07 09:21:47;;;;;;;2.88;2.42;;;;;18.20;102604.00;;;;5028276;28;20200;-79
2021/10/07 09:24:31;;;;;;;3.28;2.58;;;;;18.10;102608.00;;;;5031637;28;20624;-79
2021/10/07 09:27:01;;;;;;;2.67;2.45;;;;;18.20;102605.00;;;;5042823;28;20216;-79
2021/10/07 09:29:41;;;;;;;2.90;2.40;;;;;18.30;102605.00;;;;5028442;28;20529;-79
2021/10/07 09:32:09;;;;;;;3.58;2.55;;;;;18.40;102600.00;;;;5030976;28;20210;-80
2021/10/07 09:34:42;;;;;;;2.67;2.40;;;;;18.40;102606.00;;;;5046583;28;20200;-79
2021/10/07 09:37:32;;;;;;;3.28;2.53;;;;;18.30;102605.00;;;;5038642;28;20200;-79
2021/10/07 09:40:03;;;;;;;2.78;2.15;;;;;18.40;102607.00;;;;5034663;28;20804;-79
2021/10/07 09:42:33;;;;;;;3.80;3.22;;;;;18.50;102606.00;;;;5046450;28;20206;-79
2021/10/07 09:45:09;;;;;;;3.45;3.00;;;;;18.60;102606.00;;;;5044911;28;20200;-79
2021/10/07 09:47:38;;;;;;;2.97;2.67;;;;;18.60;102609.00;;;;5030942;28;20235;-79
2021/10/07 09:50:24;;;;;;;3.10;2.45;;;;;18.60;102612.00;;;;5034700;28;20223;-79
2021/10/07 09:52:58;;;;;;;3.88;3.13;;;;;18.70;102619.00;;;;5032975;28;20555;-79
2021/10/07 09:55:27;;;;;;;3.15;2.55;;;;;18.80;102610.00;;;;5038640;28;20669;-79
2021/10/07 09:57:57;;;;;;;2.72;2.45;;;;;18.80;102618.00;;;;5040272;28;20213;-79
2021/10/07 10:00:26;;;;;;;3.58;3.17;;;;;18.90;102615.00;;;;5035552;28;20204;-79
2021/10/07 10:02:56;;;;;;;3.97;3.53;;;;;19.10;102616.00;;;;5040944;28;20258;-79
2021/10/07 10:05:23;;;;;;;3.15;2.85;;;;;19.20;102618.00;;;;5037265;28;20206;-79
2021/10/07 10:07:50;;;;;;;3.30;2.92;;;;;19.30;102620.00;;;;5040132;28;20228;-79
2021/10/07 10:10:19;;;;;;;3.85;3.45;;;;;19.30;102618.00;;;;5031657;28;20674;-79
2021/10/07 10:12:48;;;;;;;3.33;3.00;;;;;19.40;102629.00;;;;5033239;28;20660;-79
2021/10/07 10:15:17;;;;;;;4.28;3.72;;;;;19.40;102629.00;;;;5037525;28;20204;-79
2021/10/07 10:17:44;;;;;;;4.22;3.83;;;;;19.50;102628.00;;;;5031111;28;20292;-79
2021/10/07 10:20:17;;;;;;;3.47;3.00;;;;;19.50;102632.00;;;;5042322;28;20204;-79
2021/10/07 10:22:49;;;;;;;4.18;3.78;;;;;19.60;102628.00;;;;5033413;28;20304;-79
2021/10/07 10:25:18;;;;;;;4.55;3.35;;;;;19.80;102628.00;;;;5032758;28;20679;-79
2021/10/07 10:27:55;;;;;;;4.88;4.10;;;;;19.80;102631.00;;;;5030437;28;20239;-79
2021/10/07 10:30:27;;;;;;;5.25;4.32;;;;;19.90;102638.00;;;;5037790;28;20415;-79
2021/10/07 10:32:57;;;;;;;3.53;3.22;;;;;19.90;102640.00;;;;5041752;28;20207;-79
2021/10/07 10:35:35;;;;;;;5.22;4.72;;;;;19.90;102635.00;;;;5030919;28;20196;-79
2021/10/07 10:38:04;;;;;;;5.40;4.60;;;;;20.00;102643.00;;;;5044881;28;20231;-79
2021/10/07 10:40:33;;;;;;;4.25;3.83;;;;;20.10;102643.00;;;;5035355;28;20274;-79
2021/10/07 10:43:26;;;;;;;4.38;3.92;;;;;20.00;102648.00;;;;5041780;28;20662;-79
2021/10/07 10:46:25;;;;;;;4.85;4.13;;;;;20.10;102650.00;;;;5038055;28;20211;-79
2021/10/07 10:49:00;;;;;;;4.90;4.15;;;;;20.10;102660.00;;;;5030547;28;20235;-79
2021/10/07 10:51:33;;;;;;;4.88;4.40;;;;;20.10;102663.00;;;;5041798;28;20227;-79
2021/10/07 10:54:03;;;;;;;5.78;4.57;;;;;20.20;102660.00;;;;5029752;28;20384;-79
2021/10/07 10:56:33;;;;;;;4.72;4.15;;;;;20.20;102664.00;;;;5030767;28;20266;-79
2021/10/07 10:59:21;;;;;;;5.43;4.70;;;;;20.10;102673.00;;;;5034193;28;20200;-80
2021/10/07 11:02:22;;;;;;;6.57;4.20;;;;;20.20;102669.00;;;;5033391;28;20200;-79
2021/10/07 11:04:51;;;;;;;5.03;4.22;;;;;20.30;102669.00;;;;5032150;28;20278;-79
2021/10/07 11:07:21;;;;;;;4.45;3.58;;;;;20.40;102673.00;;;;5033578;28;20608;-79
2021/10/07 11:10:00;;;;;;;5.15;4.63;;;;;20.30;102668.00;;;;5029203;28;20207;-79
2021/10/07 11:12:41;;;;;;;4.97;4.40;;;;;20.40;102673.00;;;;5030159;28;20207;-79
2021/10/07 11:15:10;;;;;;;5.68;4.15;;;;;20.50;102680.00;;;;5042641;28;20199;-78
2021/10/07 11:17:39;;;;;;;4.57;4.05;;;;;20.50;102677.00;;;;5034577;28;20204;-79
2021/10/07 11:20:07;;;;;;;4.88;4.28;;;;;20.50;102682.00;;;;5039758;28;20211;-79
2021/10/07 11:22:35;;;;;;;5.25;4.35;;;;;20.50;102690.00;;;;5034026;28;20204;-78
2021/10/07 11:25:02;;;;;;;4.72;4.10;;;;;20.60;102689.00;;;;5038255;28;20655;-78
2021/10/07 11:27:41;;;;;;;4.45;4.03;;;;;20.50;102680.00;;;;5030238;28;20705;-78
2021/10/07 11:30:14;;;;;;;6.07;4.68;;;;;20.60;102681.00;;;;5029138;28;20215;-79
2021/10/07 11:32:42;;;;;;;5.07;4.32;;;;;20.60;102688.00;;;;5045878;28;20207;-79
2021/10/07 11:35:12;;;;;;;5.40;4.57;;;;;20.70;102682.00;;;;5042410;28;20212;-79
2021/10/07 11:37:55;;;;;;;4.28;3.88;;;;;20.70;102683.00;;;;5039646;28;20199;-78
2021/10/07 11:40:26;;;;;;;4.50;4.05;;;;;20.80;102671.00;;;;5031064;28;20232;-79
2021/10/07 11:42:56;;;;;;;4.47;4.05;;;;;20.90;102671.00;;;;5036686;28;20199;-79
2021/10/07 11:45:25;;;;;;;5.22;4.72;;;;;21.00;102671.00;;;;5030386;28;20228;-79
2021/10/07 11:47:53;;;;;;;5.22;4.72;;;;;21.10;102672.00;;;;5035831;28;20604;-78
2021/10/07 11:50:23;;;;;;;4.75;4.18;;;;;21.20;102682.00;;;;5029041;28;20220;-79
2021/10/07 11:52:51;;;;;;;4.63;4.13;;;;;21.30;102675.00;;;;5029324;28;20204;-79
2021/10/07 11:55:20;;;;;;;4.88;4.38;;;;;21.40;102666.00;;;;5041114;28;20199;-79
2021/10/07 11:57:52;;;;;;;4.88;4.30;;;;;21.40;102668.00;;;;5034660;28;20210;-79
2021/10/07 12:00:39;;;;;;;5.97;4.82;;;;;21.50;102676.00;;;;5038607;28;20204;-77
2021/10/07 12:03:11;;;;;;;5.00;4.50;;;;;21.70;102673.00;;;;5028773;28;20200;-79
2021/10/07 12:05:39;;;;;;;6.32;4.38;;;;;21.80;102674.00;;;;5031226;28;20200;-79
2021/10/07 12:08:09;;;;;;;6.80;4.28;;;;;21.80;102679.00;;;;5041051;28;20243;-79
2021/10/07 12:10:38;;;;;;;4.95;4.20;;;;;21.90;102675.00;;;;5034976;28;20745;-79
2021/10/07 12:13:07;;;;;;;6.00;4.60;;;;;22.00;102678.00;;;;5037264;28;20200;-79
2021/10/07 12:15:37;;;;;;;5.68;4.97;;;;;22.10;102674.00;;;;5035583;28;20228;-79
2021/10/07 12:18:05;;;;;;;6.47;4.68;;;;;22.20;102678.00;;;;5040433;28;20218;-79
2021/10/07 12:20:33;;;;;;;5.25;4.75;;;;;22.30;102676.00;;;;5033016;28;20200;-79
2021/10/07 12:23:05;;;;;;;5.25;4.22;;;;;22.30;102679.00;;;;5028261;28;20457;-79